sensor_id;sensor_type;location;lat;lon;timestamp;P1;durP1;ratioP1;P2;durP2;ratioP2
21786;SDS011;11055;50.870;4.316;2023-04-29T00:01:09;50.75;;;32.80;;
21786;SDS011;11055;50.870;4.316;2023-04-29T00:03:34;58.47;;;35.42;;
21786;SDS011;11055;50.870;4.316;2023-04-29T00:06:00;58.33;;;34.00;;
21786;SDS011;11055;50.870;4.316;2023-04-29T00:08:26;50.08;;;32.72;;
21786;SDS011;11055;50.870;4.316;2023-04-29T00:10:52;53.83;;;34.38;;
21786;SDS011;11055;50.870;4.316;2023-04-29T00:13:18;52.58;;;33.55;;
21786;SDS011;11055;50.870;4.316;2023-04-29T00:15:43;58.67;;;36.13;;
21786;SDS011;11055;50.870;4.316;2023-04-29T00:18:09;50.97;;;34.33;;
21786;SDS011;11055;50.870;4.316;2023-04-29T00:20:35;47.63;;;31.90;;
21786;SDS011;11055;50.870;4.316;2023-04-29T00:23:02;50.85;;;31.60;;
21786;SDS011;11055;50.870;4.316;2023-04-29T00:25:28;46.17;;;30.02;;
21786;SDS011;11055;50.870;4.316;2023-04-29T00:27:54;46.28;;;29.63;;
21786;SDS011;11055;50.870;4.316;2023-04-29T00:30:20;48.97;;;31.55;;
21786;SDS011;11055;50.870;4.316;2023-04-29T00:32:46;46.70;;;30.35;;
21786;SDS011;11055;50.870;4.316;2023-04-29T00:35:11;44.88;;;29.88;;
21786;SDS011;11055;50.870;4.316;2023-04-29T00:37:37;44.45;;;30.05;;
21786;SDS011;11055;50.870;4.316;2023-04-29T00:40:03;46.15;;;29.98;;
21786;SDS011;11055;50.870;4.316;2023-04-29T00:42:30;45.75;;;29.38;;
21786;SDS011;11055;50.870;4.316;2023-04-29T00:44:58;47.63;;;30.13;;
21786;SDS011;11055;50.870;4.316;2023-04-29T00:47:23;50.42;;;29.77;;
21786;SDS011;11055;50.870;4.316;2023-04-29T00:49:49;45.40;;;28.88;;
21786;SDS011;11055;50.870;4.316;2023-04-29T00:52:15;42.33;;;28.45;;
21786;SDS011;11055;50.870;4.316;2023-04-29T00:54:42;44.90;;;28.95;;
21786;SDS011;11055;50.870;4.316;2023-04-29T00:57:08;46.45;;;28.27;;
21786;SDS011;11055;50.870;4.316;2023-04-29T00:59:34;43.72;;;27.63;;
21786;SDS011;11055;50.870;4.316;2023-04-29T01:02:03;42.63;;;27.10;;
21786;SDS011;11055;50.870;4.316;2023-04-29T01:04:29;40.28;;;26.73;;
21786;SDS011;11055;50.870;4.316;2023-04-29T01:12:30;48.53;;;29.85;;
21786;SDS011;11055;50.870;4.316;2023-04-29T01:15:20;49.00;;;28.77;;
21786;SDS011;11055;50.870;4.316;2023-04-29T01:18:03;43.00;;;29.00;;
21786;SDS011;11055;50.870;4.316;2023-04-29T01:20:29;51.35;;;30.02;;
21786;SDS011;11055;50.870;4.316;2023-04-29T01:22:56;48.85;;;28.65;;
21786;SDS011;11055;50.870;4.316;2023-04-29T01:25:22;50.10;;;28.65;;
21786;SDS011;11055;50.870;4.316;2023-04-29T01:30:47;50.25;;;30.58;;
21786;SDS011;11055;50.870;4.316;2023-04-29T01:41:17;50.28;;;30.45;;
21786;SDS011;11055;50.870;4.316;2023-04-29T01:43:50;49.33;;;30.60;;
21786;SDS011;11055;50.870;4.316;2023-04-29T01:46:20;58.72;;;35.63;;
21786;SDS011;11055;50.870;4.316;2023-04-29T01:48:46;54.10;;;33.25;;
21786;SDS011;11055;50.870;4.316;2023-04-29T01:51:12;54.53;;;34.10;;
21786;SDS011;11055;50.870;4.316;2023-04-29T01:53:38;56.17;;;35.25;;
21786;SDS011;11055;50.870;4.316;2023-04-29T01:56:06;58.00;;;36.03;;
21786;SDS011;11055;50.870;4.316;2023-04-29T01:58:32;60.85;;;36.80;;
21786;SDS011;11055;50.870;4.316;2023-04-29T02:00:58;58.70;;;35.88;;
21786;SDS011;11055;50.870;4.316;2023-04-29T02:03:23;56.15;;;35.67;;
21786;SDS011;11055;50.870;4.316;2023-04-29T02:05:49;57.92;;;37.28;;
21786;SDS011;11055;50.870;4.316;2023-04-29T02:08:18;57.28;;;35.10;;
21786;SDS011;11055;50.870;4.316;2023-04-29T02:10:50;51.65;;;34.22;;
21786;SDS011;11055;50.870;4.316;2023-04-29T02:13:20;60.22;;;38.65;;
21786;SDS011;11055;50.870;4.316;2023-04-29T02:15:46;60.90;;;38.08;;
21786;SDS011;11055;50.870;4.316;2023-04-29T02:18:11;58.55;;;38.33;;
21786;SDS011;11055;50.870;4.316;2023-04-29T02:20:37;61.85;;;38.78;;
21786;SDS011;11055;50.870;4.316;2023-04-29T02:23:03;55.42;;;36.90;;
21786;SDS011;11055;50.870;4.316;2023-04-29T02:25:28;55.75;;;35.88;;
21786;SDS011;11055;50.870;4.316;2023-04-29T02:27:54;52.70;;;35.13;;
21786;SDS011;11055;50.870;4.316;2023-04-29T02:30:19;46.55;;;33.15;;
21786;SDS011;11055;50.870;4.316;2023-04-29T02:32:45;43.00;;;32.58;;
21786;SDS011;11055;50.870;4.316;2023-04-29T02:35:11;47.05;;;32.75;;
21786;SDS011;11055;50.870;4.316;2023-04-29T02:37:36;43.63;;;31.38;;
21786;SDS011;11055;50.870;4.316;2023-04-29T02:40:02;40.88;;;30.33;;
21786;SDS011;11055;50.870;4.316;2023-04-29T02:42:29;33.88;;;27.48;;
21786;SDS011;11055;50.870;4.316;2023-04-29T02:44:54;31.67;;;24.80;;
21786;SDS011;11055;50.870;4.316;2023-04-29T02:47:20;34.67;;;25.17;;
21786;SDS011;11055;50.870;4.316;2023-04-29T02:49:46;32.60;;;24.10;;
21786;SDS011;11055;50.870;4.316;2023-04-29T02:52:11;31.55;;;23.92;;
21786;SDS011;11055;50.870;4.316;2023-04-29T02:54:37;30.00;;;23.55;;
21786;SDS011;11055;50.870;4.316;2023-04-29T02:57:04;31.67;;;22.95;;
21786;SDS011;11055;50.870;4.316;2023-04-29T02:59:29;28.73;;;20.17;;
21786;SDS011;11055;50.870;4.316;2023-04-29T03:01:55;25.20;;;20.92;;
21786;SDS011;11055;50.870;4.316;2023-04-29T03:04:21;25.30;;;20.73;;
21786;SDS011;11055;50.870;4.316;2023-04-29T03:06:47;27.05;;;20.95;;
21786;SDS011;11055;50.870;4.316;2023-04-29T03:09:13;27.00;;;20.60;;
21786;SDS011;11055;50.870;4.316;2023-04-29T03:11:38;27.05;;;21.30;;
21786;SDS011;11055;50.870;4.316;2023-04-29T03:14:04;27.35;;;20.83;;
21786;SDS011;11055;50.870;4.316;2023-04-29T03:16:30;29.08;;;21.80;;
21786;SDS011;11055;50.870;4.316;2023-04-29T03:18:56;28.20;;;20.40;;
21786;SDS011;11055;50.870;4.316;2023-04-29T03:21:22;28.13;;;21.20;;
21786;SDS011;11055;50.870;4.316;2023-04-29T03:23:50;29.15;;;22.45;;
21786;SDS011;11055;50.870;4.316;2023-04-29T03:26:15;35.08;;;23.15;;
21786;SDS011;11055;50.870;4.316;2023-04-29T03:28:42;38.72;;;23.70;;
21786;SDS011;11055;50.870;4.316;2023-04-29T03:31:07;32.22;;;22.95;;
21786;SDS011;11055;50.870;4.316;2023-04-29T03:33:35;29.67;;;21.77;;
21786;SDS011;11055;50.870;4.316;2023-04-29T03:36:01;27.83;;;21.48;;
21786;SDS011;11055;50.870;4.316;2023-04-29T03:38:27;27.40;;;20.08;;
21786;SDS011;11055;50.870;4.316;2023-04-29T03:40:53;27.83;;;19.92;;
21786;SDS011;11055;50.870;4.316;2023-04-29T03:43:18;30.58;;;20.33;;
21786;SDS011;11055;50.870;4.316;2023-04-29T03:45:44;24.85;;;19.85;;
21786;SDS011;11055;50.870;4.316;2023-04-29T03:48:10;32.90;;;20.95;;
21786;SDS011;11055;50.870;4.316;2023-04-29T03:50:36;31.35;;;20.95;;
21786;SDS011;11055;50.870;4.316;2023-04-29T03:53:02;32.42;;;21.85;;
21786;SDS011;11055;50.870;4.316;2023-04-29T03:55:27;32.00;;;21.55;;
21786;SDS011;11055;50.870;4.316;2023-04-29T03:57:53;32.75;;;22.55;;
21786;SDS011;11055;50.870;4.316;2023-04-29T04:00:19;33.35;;;23.20;;
21786;SDS011;11055;50.870;4.316;2023-04-29T04:02:45;30.08;;;22.65;;
21786;SDS011;11055;50.870;4.316;2023-04-29T04:05:11;28.70;;;23.63;;
21786;SDS011;11055;50.870;4.316;2023-04-29T04:07:37;35.22;;;24.25;;
21786;SDS011;11055;50.870;4.316;2023-04-29T04:10:02;32.33;;;24.48;;
21786;SDS011;11055;50.870;4.316;2023-04-29T04:12:28;35.53;;;24.00;;
21786;SDS011;11055;50.870;4.316;2023-04-29T04:14:54;30.60;;;23.48;;
21786;SDS011;11055;50.870;4.316;2023-04-29T04:17:19;32.97;;;23.92;;
21786;SDS011;11055;50.870;4.316;2023-04-29T04:19:45;39.00;;;25.08;;
21786;SDS011;11055;50.870;4.316;2023-04-29T04:22:10;40.05;;;25.85;;
21786;SDS011;11055;50.870;4.316;2023-04-29T04:24:36;41.47;;;26.50;;
21786;SDS011;11055;50.870;4.316;2023-04-29T04:27:02;41.55;;;27.33;;
21786;SDS011;11055;50.870;4.316;2023-04-29T04:29:28;43.17;;;29.13;;
21786;SDS011;11055;50.870;4.316;2023-04-29T04:31:53;47.13;;;28.90;;
21786;SDS011;11055;50.870;4.316;2023-04-29T04:34:19;44.83;;;29.48;;
21786;SDS011;11055;50.870;4.316;2023-04-29T04:36:45;42.90;;;29.60;;
21786;SDS011;11055;50.870;4.316;2023-04-29T04:39:11;45.95;;;29.77;;
21786;SDS011;11055;50.870;4.316;2023-04-29T04:41:37;44.22;;;30.40;;
21786;SDS011;11055;50.870;4.316;2023-04-29T04:44:03;45.63;;;29.67;;
21786;SDS011;11055;50.870;4.316;2023-04-29T04:46:29;43.95;;;29.52;;
21786;SDS011;11055;50.870;4.316;2023-04-29T04:48:55;43.25;;;29.00;;
21786;SDS011;11055;50.870;4.316;2023-04-29T04:51:20;41.83;;;29.80;;
21786;SDS011;11055;50.870;4.316;2023-04-29T04:53:46;47.20;;;30.20;;
21786;SDS011;11055;50.870;4.316;2023-04-29T04:56:12;48.15;;;27.63;;
21786;SDS011;11055;50.870;4.316;2023-04-29T04:58:38;34.47;;;26.73;;
21786;SDS011;11055;50.870;4.316;2023-04-29T05:01:03;36.58;;;26.77;;
21786;SDS011;11055;50.870;4.316;2023-04-29T05:03:29;38.53;;;27.33;;
21786;SDS011;11055;50.870;4.316;2023-04-29T05:08:21;37.25;;;27.23;;
21786;SDS011;11055;50.870;4.316;2023-04-29T05:10:47;33.90;;;26.75;;
21786;SDS011;11055;50.870;4.316;2023-04-29T05:13:12;39.35;;;28.13;;
21786;SDS011;11055;50.870;4.316;2023-04-29T05:15:38;40.60;;;27.27;;
21786;SDS011;11055;50.870;4.316;2023-04-29T05:18:04;36.25;;;25.73;;
21786;SDS011;11055;50.870;4.316;2023-04-29T05:20:29;35.53;;;25.10;;
21786;SDS011;11055;50.870;4.316;2023-04-29T05:22:55;37.72;;;26.10;;
21786;SDS011;11055;50.870;4.316;2023-04-29T05:25:21;35.50;;;25.63;;
21786;SDS011;11055;50.870;4.316;2023-04-29T05:27:46;36.00;;;24.50;;
21786;SDS011;11055;50.870;4.316;2023-04-29T05:30:12;34.42;;;25.65;;
21786;SDS011;11055;50.870;4.316;2023-04-29T05:32:37;33.63;;;25.48;;
21786;SDS011;11055;50.870;4.316;2023-04-29T05:35:04;37.95;;;27.13;;
21786;SDS011;11055;50.870;4.316;2023-04-29T05:37:31;38.55;;;24.77;;
21786;SDS011;11055;50.870;4.316;2023-04-29T05:39:56;37.28;;;26.25;;
21786;SDS011;11055;50.870;4.316;2023-04-29T05:42:22;34.25;;;25.90;;
21786;SDS011;11055;50.870;4.316;2023-04-29T05:44:48;39.58;;;28.15;;
21786;SDS011;11055;50.870;4.316;2023-04-29T05:47:14;35.30;;;26.50;;
21786;SDS011;11055;50.870;4.316;2023-04-29T05:49:40;35.75;;;27.70;;
21786;SDS011;11055;50.870;4.316;2023-04-29T05:52:05;32.97;;;26.65;;
21786;SDS011;11055;50.870;4.316;2023-04-29T05:54:31;40.13;;;27.77;;
21786;SDS011;11055;50.870;4.316;2023-04-29T05:56:58;37.00;;;29.02;;
21786;SDS011;11055;50.870;4.316;2023-04-29T05:59:26;36.33;;;25.55;;
21786;SDS011;11055;50.870;4.316;2023-04-29T06:04:23;33.75;;;24.15;;
21786;SDS011;11055;50.870;4.316;2023-04-29T06:06:50;28.00;;;22.33;;
21786;SDS011;11055;50.870;4.316;2023-04-29T06:09:17;29.55;;;20.73;;
21786;SDS011;11055;50.870;4.316;2023-04-29T06:11:44;30.90;;;22.15;;
21786;SDS011;11055;50.870;4.316;2023-04-29T06:14:10;29.67;;;23.05;;
21786;SDS011;11055;50.870;4.316;2023-04-29T06:16:36;32.70;;;22.40;;
21786;SDS011;11055;50.870;4.316;2023-04-29T06:19:03;29.70;;;22.33;;
21786;SDS011;11055;50.870;4.316;2023-04-29T06:21:28;29.95;;;21.70;;
21786;SDS011;11055;50.870;4.316;2023-04-29T06:23:54;28.60;;;20.08;;
21786;SDS011;11055;50.870;4.316;2023-04-29T06:26:20;26.00;;;19.42;;
21786;SDS011;11055;50.870;4.316;2023-04-29T06:28:46;27.58;;;20.45;;
21786;SDS011;11055;50.870;4.316;2023-04-29T06:31:12;25.40;;;20.85;;
21786;SDS011;11055;50.870;4.316;2023-04-29T06:33:38;28.35;;;21.08;;
21786;SDS011;11055;50.870;4.316;2023-04-29T06:36:03;29.05;;;21.48;;
21786;SDS011;11055;50.870;4.316;2023-04-29T06:38:29;32.13;;;23.25;;
21786;SDS011;11055;50.870;4.316;2023-04-29T06:40:55;30.63;;;22.13;;
21786;SDS011;11055;50.870;4.316;2023-04-29T06:43:31;32.83;;;22.92;;
21786;SDS011;11055;50.870;4.316;2023-04-29T06:45:57;33.58;;;23.23;;
21786;SDS011;11055;50.870;4.316;2023-04-29T06:48:22;33.53;;;22.23;;
21786;SDS011;11055;50.870;4.316;2023-04-29T06:50:52;30.63;;;22.92;;
21786;SDS011;11055;50.870;4.316;2023-04-29T06:53:19;32.65;;;23.55;;
21786;SDS011;11055;50.870;4.316;2023-04-29T06:55:45;30.92;;;26.02;;
21786;SDS011;11055;50.870;4.316;2023-04-29T06:58:12;31.75;;;23.40;;
21786;SDS011;11055;50.870;4.316;2023-04-29T07:00:43;36.83;;;26.20;;
21786;SDS011;11055;50.870;4.316;2023-04-29T07:03:10;30.75;;;25.17;;
21786;SDS011;11055;50.870;4.316;2023-04-29T07:05:36;34.08;;;25.10;;
21786;SDS011;11055;50.870;4.316;2023-04-29T07:08:06;31.80;;;24.35;;
21786;SDS011;11055;50.870;4.316;2023-04-29T07:10:33;30.85;;;24.00;;
21786;SDS011;11055;50.870;4.316;2023-04-29T07:12:59;30.20;;;24.08;;
21786;SDS011;11055;50.870;4.316;2023-04-29T07:15:25;31.15;;;24.67;;
21786;SDS011;11055;50.870;4.316;2023-04-29T07:17:53;31.38;;;24.70;;
21786;SDS011;11055;50.870;4.316;2023-04-29T07:20:19;31.55;;;25.42;;
21786;SDS011;11055;50.870;4.316;2023-04-29T07:22:44;34.35;;;24.90;;
21786;SDS011;11055;50.870;4.316;2023-04-29T07:25:10;36.75;;;26.35;;
21786;SDS011;11055;50.870;4.316;2023-04-29T07:27:36;37.63;;;27.60;;
21786;SDS011;11055;50.870;4.316;2023-04-29T07:30:02;65.78;;;52.35;;
21786;SDS011;11055;50.870;4.316;2023-04-29T07:32:29;46.90;;;31.25;;
21786;SDS011;11055;50.870;4.316;2023-04-29T07:34:58;38.20;;;29.63;;
21786;SDS011;11055;50.870;4.316;2023-04-29T07:37:26;41.60;;;29.52;;
21786;SDS011;11055;50.870;4.316;2023-04-29T07:39:55;41.90;;;33.92;;
21786;SDS011;11055;50.870;4.316;2023-04-29T07:42:20;40.90;;;30.80;;
21786;SDS011;11055;50.870;4.316;2023-04-29T07:44:46;46.42;;;31.73;;
21786;SDS011;11055;50.870;4.316;2023-04-29T07:47:12;46.63;;;32.38;;
21786;SDS011;11055;50.870;4.316;2023-04-29T07:49:37;47.78;;;33.03;;
21786;SDS011;11055;50.870;4.316;2023-04-29T07:52:03;49.58;;;32.97;;
21786;SDS011;11055;50.870;4.316;2023-04-29T07:54:30;44.17;;;31.90;;
21786;SDS011;11055;50.870;4.316;2023-04-29T07:56:58;43.28;;;33.67;;
21786;SDS011;11055;50.870;4.316;2023-04-29T07:59:25;45.65;;;32.70;;
21786;SDS011;11055;50.870;4.316;2023-04-29T08:01:51;38.05;;;31.20;;
21786;SDS011;11055;50.870;4.316;2023-04-29T08:04:17;42.05;;;33.03;;
21786;SDS011;11055;50.870;4.316;2023-04-29T08:06:43;42.00;;;31.42;;
21786;SDS011;11055;50.870;4.316;2023-04-29T08:09:09;42.00;;;33.45;;
21786;SDS011;11055;50.870;4.316;2023-04-29T08:11:35;44.53;;;33.65;;
21786;SDS011;11055;50.870;4.316;2023-04-29T08:14:00;40.22;;;29.92;;
21786;SDS011;11055;50.870;4.316;2023-04-29T08:16:26;34.97;;;28.65;;
21786;SDS011;11055;50.870;4.316;2023-04-29T08:18:52;35.53;;;28.55;;
21786;SDS011;11055;50.870;4.316;2023-04-29T08:21:18;37.95;;;28.20;;
21786;SDS011;11055;50.870;4.316;2023-04-29T08:23:44;34.35;;;25.55;;
21786;SDS011;11055;50.870;4.316;2023-04-29T08:26:10;31.33;;;25.63;;
21786;SDS011;11055;50.870;4.316;2023-04-29T08:28:38;32.78;;;25.27;;
21786;SDS011;11055;50.870;4.316;2023-04-29T08:31:05;30.17;;;24.90;;
21786;SDS011;11055;50.870;4.316;2023-04-29T08:33:35;37.42;;;25.83;;
21786;SDS011;11055;50.870;4.316;2023-04-29T08:36:01;31.00;;;24.75;;
21786;SDS011;11055;50.870;4.316;2023-04-29T08:38:28;36.00;;;25.60;;
21786;SDS011;11055;50.870;4.316;2023-04-29T08:40:55;36.88;;;25.17;;
21786;SDS011;11055;50.870;4.316;2023-04-29T08:43:21;32.67;;;23.58;;
21786;SDS011;11055;50.870;4.316;2023-04-29T08:45:47;28.27;;;22.45;;
21786;SDS011;11055;50.870;4.316;2023-04-29T08:48:14;29.58;;;23.17;;
21786;SDS011;11055;50.870;4.316;2023-04-29T08:50:41;30.90;;;25.08;;
21786;SDS011;11055;50.870;4.316;2023-04-29T08:53:08;29.55;;;24.60;;
21786;SDS011;11055;50.870;4.316;2023-04-29T08:55:35;31.13;;;24.83;;
21786;SDS011;11055;50.870;4.316;2023-04-29T08:58:12;32.67;;;25.85;;
21786;SDS011;11055;50.870;4.316;2023-04-29T09:00:41;38.58;;;27.60;;
21786;SDS011;11055;50.870;4.316;2023-04-29T09:03:26;31.17;;;25.98;;
21786;SDS011;11055;50.870;4.316;2023-04-29T09:06:08;38.80;;;24.73;;
21786;SDS011;11055;50.870;4.316;2023-04-29T09:08:36;33.15;;;26.92;;
21786;SDS011;11055;50.870;4.316;2023-04-29T09:11:03;35.25;;;25.38;;
21786;SDS011;11055;50.870;4.316;2023-04-29T09:13:31;33.40;;;26.80;;
21786;SDS011;11055;50.870;4.316;2023-04-29T09:15:57;33.50;;;25.48;;
21786;SDS011;11055;50.870;4.316;2023-04-29T09:23:41;31.58;;;25.20;;
21786;SDS011;11055;50.870;4.316;2023-04-29T09:26:07;31.63;;;26.58;;
21786;SDS011;11055;50.870;4.316;2023-04-29T09:28:33;31.42;;;25.25;;
21786;SDS011;11055;50.870;4.316;2023-04-29T09:31:00;33.42;;;26.23;;
21786;SDS011;11055;50.870;4.316;2023-04-29T09:35:56;34.38;;;26.15;;
21786;SDS011;11055;50.870;4.316;2023-04-29T09:38:22;32.53;;;25.00;;
21786;SDS011;11055;50.870;4.316;2023-04-29T09:40:47;29.20;;;25.23;;
21786;SDS011;11055;50.870;4.316;2023-04-29T09:43:15;34.75;;;25.42;;
21786;SDS011;11055;50.870;4.316;2023-04-29T09:45:43;32.38;;;25.77;;
21786;SDS011;11055;50.870;4.316;2023-04-29T09:48:10;37.47;;;24.88;;
21786;SDS011;11055;50.870;4.316;2023-04-29T09:50:37;32.30;;;24.88;;
21786;SDS011;11055;50.870;4.316;2023-04-29T09:53:06;30.08;;;24.50;;
21786;SDS011;11055;50.870;4.316;2023-04-29T09:55:37;28.77;;;24.10;;
21786;SDS011;11055;50.870;4.316;2023-04-29T09:58:29;33.67;;;25.63;;
21786;SDS011;11055;50.870;4.316;2023-04-29T10:01:01;32.10;;;24.42;;
21786;SDS011;11055;50.870;4.316;2023-04-29T10:03:34;31.35;;;24.50;;
21786;SDS011;11055;50.870;4.316;2023-04-29T10:06:02;29.27;;;23.58;;
21786;SDS011;11055;50.870;4.316;2023-04-29T10:08:30;30.52;;;24.15;;
21786;SDS011;11055;50.870;4.316;2023-04-29T10:11:00;25.48;;;22.75;;
21786;SDS011;11055;50.870;4.316;2023-04-29T10:13:27;28.73;;;24.80;;
21786;SDS011;11055;50.870;4.316;2023-04-29T10:15:57;31.23;;;23.10;;
21786;SDS011;11055;50.870;4.316;2023-04-29T10:18:36;27.25;;;21.85;;
21786;SDS011;11055;50.870;4.316;2023-04-29T10:21:07;25.17;;;21.88;;
21786;SDS011;11055;50.870;4.316;2023-04-29T10:23:33;27.48;;;22.00;;
21786;SDS011;11055;50.870;4.316;2023-04-29T10:26:00;27.83;;;22.02;;
21786;SDS011;11055;50.870;4.316;2023-04-29T10:28:29;29.48;;;21.75;;
21786;SDS011;11055;50.870;4.316;2023-04-29T10:30:57;21.83;;;19.20;;
21786;SDS011;11055;50.870;4.316;2023-04-29T10:33:29;24.23;;;20.20;;
21786;SDS011;11055;50.870;4.316;2023-04-29T10:35:58;21.73;;;19.48;;
21786;SDS011;11055;50.870;4.316;2023-04-29T10:38:29;23.60;;;19.30;;
21786;SDS011;11055;50.870;4.316;2023-04-29T10:41:14;21.88;;;18.77;;
21786;SDS011;11055;50.870;4.316;2023-04-29T10:43:44;21.67;;;19.38;;
21786;SDS011;11055;50.870;4.316;2023-04-29T10:46:23;23.88;;;19.42;;
21786;SDS011;11055;50.870;4.316;2023-04-29T10:49:10;24.35;;;19.17;;
21786;SDS011;11055;50.870;4.316;2023-04-29T10:51:42;25.30;;;19.40;;
21786;SDS011;11055;50.870;4.316;2023-04-29T10:54:13;20.48;;;16.98;;
21786;SDS011;11055;50.870;4.316;2023-04-29T10:59:59;22.23;;;17.45;;
21786;SDS011;11055;50.870;4.316;2023-04-29T11:02:00;27.33;;;19.48;;
21786;SDS011;11055;50.870;4.316;2023-04-29T11:04:26;20.75;;;18.00;;
21786;SDS011;11055;50.870;4.316;2023-04-29T11:09:24;16.30;;;14.30;;
21786;SDS011;11055;50.870;4.316;2023-04-29T11:16:51;18.67;;;15.73;;
21786;SDS011;11055;50.870;4.316;2023-04-29T11:19:22;17.02;;;15.23;;
21786;SDS011;11055;50.870;4.316;2023-04-29T11:22:02;21.33;;;16.80;;
21786;SDS011;11055;50.870;4.316;2023-04-29T11:24:33;24.25;;;19.42;;
21786;SDS011;11055;50.870;4.316;2023-04-29T11:27:00;24.25;;;20.08;;
21786;SDS011;11055;50.870;4.316;2023-04-29T11:29:30;23.17;;;20.43;;
21786;SDS011;11055;50.870;4.316;2023-04-29T11:32:03;25.10;;;21.25;;
21786;SDS011;11055;50.870;4.316;2023-04-29T11:34:29;22.42;;;19.90;;
21786;SDS011;11055;50.870;4.316;2023-04-29T11:36:54;23.40;;;20.48;;
21786;SDS011;11055;50.870;4.316;2023-04-29T11:39:20;22.38;;;19.33;;
21786;SDS011;11055;50.870;4.316;2023-04-29T11:41:47;24.15;;;19.75;;
21786;SDS011;11055;50.870;4.316;2023-04-29T11:44:13;21.80;;;18.55;;
21786;SDS011;11055;50.870;4.316;2023-04-29T11:46:39;20.67;;;18.50;;
21786;SDS011;11055;50.870;4.316;2023-04-29T11:49:05;20.30;;;18.20;;
21786;SDS011;11055;50.870;4.316;2023-04-29T11:51:30;22.38;;;18.65;;
21786;SDS011;11055;50.870;4.316;2023-04-29T11:53:56;19.70;;;17.67;;
21786;SDS011;11055;50.870;4.316;2023-04-29T11:56:22;22.00;;;17.55;;
21786;SDS011;11055;50.870;4.316;2023-04-29T11:58:55;19.08;;;16.88;;
21786;SDS011;11055;50.870;4.316;2023-04-29T12:01:21;20.30;;;17.40;;
21786;SDS011;11055;50.870;4.316;2023-04-29T12:03:49;20.55;;;16.95;;
21786;SDS011;11055;50.870;4.316;2023-04-29T12:06:14;18.60;;;16.15;;
21786;SDS011;11055;50.870;4.316;2023-04-29T12:08:40;19.52;;;17.55;;
21786;SDS011;11055;50.870;4.316;2023-04-29T12:11:06;23.13;;;16.60;;
21786;SDS011;11055;50.870;4.316;2023-04-29T12:13:32;20.02;;;14.75;;
21786;SDS011;11055;50.870;4.316;2023-04-29T12:16:00;16.38;;;13.88;;
21786;SDS011;11055;50.870;4.316;2023-04-29T12:18:27;18.15;;;14.02;;
21786;SDS011;11055;50.870;4.316;2023-04-29T12:20:54;15.95;;;13.48;;
21786;SDS011;11055;50.870;4.316;2023-04-29T12:23:21;15.18;;;13.57;;
21786;SDS011;11055;50.870;4.316;2023-04-29T12:28:21;16.58;;;13.48;;
21786;SDS011;11055;50.870;4.316;2023-04-29T12:30:47;14.75;;;13.18;;
21786;SDS011;11055;50.870;4.316;2023-04-29T12:33:17;14.30;;;12.48;;
21786;SDS011;11055;50.870;4.316;2023-04-29T12:35:47;13.88;;;12.48;;
21786;SDS011;11055;50.870;4.316;2023-04-29T12:38:15;13.65;;;12.05;;
21786;SDS011;11055;50.870;4.316;2023-04-29T12:40:53;14.80;;;12.18;;
21786;SDS011;11055;50.870;4.316;2023-04-29T12:43:30;13.40;;;11.80;;
21786;SDS011;11055;50.870;4.316;2023-04-29T12:46:01;15.82;;;11.70;;
21786;SDS011;11055;50.870;4.316;2023-04-29T12:48:33;14.00;;;12.45;;
21786;SDS011;11055;50.870;4.316;2023-04-29T12:51:07;14.10;;;12.60;;
21786;SDS011;11055;50.870;4.316;2023-04-29T12:53:34;14.70;;;13.02;;
21786;SDS011;11055;50.870;4.316;2023-04-29T12:56:00;14.05;;;12.63;;
21786;SDS011;11055;50.870;4.316;2023-04-29T12:58:29;15.93;;;11.95;;
21786;SDS011;11055;50.870;4.316;2023-04-29T13:00:55;17.08;;;14.73;;
21786;SDS011;11055;50.870;4.316;2023-04-29T13:03:21;17.58;;;14.90;;
21786;SDS011;11055;50.870;4.316;2023-04-29T13:05:47;16.40;;;14.77;;
21786;SDS011;11055;50.870;4.316;2023-04-29T13:08:16;16.13;;;14.25;;
21786;SDS011;11055;50.870;4.316;2023-04-29T13:10:42;16.10;;;13.95;;
21786;SDS011;11055;50.870;4.316;2023-04-29T13:13:08;17.92;;;14.57;;
21786;SDS011;11055;50.870;4.316;2023-04-29T13:15:34;16.13;;;14.02;;
21786;SDS011;11055;50.870;4.316;2023-04-29T13:18:00;17.58;;;13.82;;
21786;SDS011;11055;50.870;4.316;2023-04-29T13:20:26;15.52;;;13.73;;
21786;SDS011;11055;50.870;4.316;2023-04-29T13:22:52;15.45;;;13.70;;
21786;SDS011;11055;50.870;4.316;2023-04-29T13:25:18;16.85;;;13.75;;
21786;SDS011;11055;50.870;4.316;2023-04-29T13:27:44;16.50;;;14.80;;
21786;SDS011;11055;50.870;4.316;2023-04-29T13:30:09;18.02;;;14.68;;
21786;SDS011;11055;50.870;4.316;2023-04-29T13:32:35;17.17;;;15.45;;
21786;SDS011;11055;50.870;4.316;2023-04-29T13:35:01;17.60;;;15.55;;
21786;SDS011;11055;50.870;4.316;2023-04-29T13:37:28;16.10;;;14.13;;
21786;SDS011;11055;50.870;4.316;2023-04-29T13:39:54;18.38;;;15.05;;
21786;SDS011;11055;50.870;4.316;2023-04-29T13:42:19;19.00;;;15.50;;
21786;SDS011;11055;50.870;4.316;2023-04-29T13:44:45;15.77;;;14.02;;
21786;SDS011;11055;50.870;4.316;2023-04-29T13:47:11;16.35;;;14.65;;
21786;SDS011;11055;50.870;4.316;2023-04-29T13:49:41;17.00;;;15.18;;
21786;SDS011;11055;50.870;4.316;2023-04-29T13:52:10;16.88;;;15.18;;
21786;SDS011;11055;50.870;4.316;2023-04-29T13:54:37;17.15;;;15.48;;
21786;SDS011;11055;50.870;4.316;2023-04-29T13:57:03;17.90;;;16.00;;
21786;SDS011;11055;50.870;4.316;2023-04-29T13:59:32;16.65;;;14.93;;
21786;SDS011;11055;50.870;4.316;2023-04-29T14:01:59;16.25;;;14.55;;
21786;SDS011;11055;50.870;4.316;2023-04-29T14:04:26;15.90;;;13.63;;
21786;SDS011;11055;50.870;4.316;2023-04-29T14:06:53;15.02;;;13.43;;
21786;SDS011;11055;50.870;4.316;2023-04-29T14:09:20;16.13;;;14.40;;
21786;SDS011;11055;50.870;4.316;2023-04-29T14:11:47;16.08;;;14.48;;
21786;SDS011;11055;50.870;4.316;2023-04-29T14:14:14;16.85;;;15.15;;
21786;SDS011;11055;50.870;4.316;2023-04-29T14:16:40;15.40;;;13.80;;
21786;SDS011;11055;50.870;4.316;2023-04-29T14:19:06;22.15;;;15.38;;
21786;SDS011;11055;50.870;4.316;2023-04-29T14:21:32;16.73;;;13.30;;
21786;SDS011;11055;50.870;4.316;2023-04-29T14:23:58;14.23;;;12.68;;
21786;SDS011;11055;50.870;4.316;2023-04-29T14:26:26;19.80;;;12.40;;
21786;SDS011;11055;50.870;4.316;2023-04-29T14:28:52;14.38;;;12.88;;
21786;SDS011;11055;50.870;4.316;2023-04-29T14:31:33;12.93;;;11.45;;
21786;SDS011;11055;50.870;4.316;2023-04-29T14:34:02;15.20;;;12.52;;
21786;SDS011;11055;50.870;4.316;2023-04-29T14:36:29;12.45;;;11.15;;
21786;SDS011;11055;50.870;4.316;2023-04-29T14:38:56;12.50;;;10.85;;
21786;SDS011;11055;50.870;4.316;2023-04-29T14:41:22;15.10;;;13.13;;
21786;SDS011;11055;50.870;4.316;2023-04-29T14:43:48;16.33;;;13.30;;
21786;SDS011;11055;50.870;4.316;2023-04-29T14:46:14;14.18;;;12.27;;
21786;SDS011;11055;50.870;4.316;2023-04-29T14:48:41;16.02;;;14.10;;
21786;SDS011;11055;50.870;4.316;2023-04-29T14:51:07;15.80;;;12.80;;
21786;SDS011;11055;50.870;4.316;2023-04-29T14:53:33;14.75;;;12.60;;
21786;SDS011;11055;50.870;4.316;2023-04-29T14:55:59;15.05;;;10.88;;
21786;SDS011;11055;50.870;4.316;2023-04-29T14:58:24;10.70;;;9.20;;
21786;SDS011;11055;50.870;4.316;2023-04-29T15:00:50;13.82;;;9.45;;
21786;SDS011;11055;50.870;4.316;2023-04-29T15:03:16;11.10;;;10.00;;